sensor_id;sensor_type;location;lat;lon;timestamp;pressure;altitude;pressure_sealevel;temperature;humidity
11339;BME280;5724;42.684;23.252;2023-07-24T00:00:09;94599.34;;;21.49;72.18
11339;BME280;5724;42.684;23.252;2023-07-24T00:02:34;94597.88;;;21.41;72.45
11339;BME280;5724;42.684;23.252;2023-07-24T00:05:00;94606.66;;;21.39;72.66
11339;BME280;5724;42.684;23.252;2023-07-24T00:07:25;94607.59;;;21.29;73.27
11339;BME280;5724;42.684;23.252;2023-07-24T00:09:51;94602.09;;;21.26;73.49
11339;BME280;5724;42.684;23.252;2023-07-24T00:12:17;94604.59;;;21.17;74.16
11339;BME280;5724;42.684;23.252;2023-07-24T00:14:43;94602.78;;;21.06;74.07
11339;BME280;5724;42.684;23.252;2023-07-24T00:17:08;94614.19;;;21.12;73.54
11339;BME280;5724;42.684;23.252;2023-07-24T00:19:33;94610.63;;;21.11;74.30
11339;BME280;5724;42.684;23.252;2023-07-24T00:21:59;94611.06;;;21.10;73.82
11339;BME280;5724;42.684;23.252;2023-07-24T00:24:24;94607.97;;;21.04;74.19
11339;BME280;5724;42.684;23.252;2023-07-24T00:26:50;94603.25;;;21.01;73.93
11339;BME280;5724;42.684;23.252;2023-07-24T00:29:15;94597.75;;;20.98;74.18
11339;BME280;5724;42.684;23.252;2023-07-24T00:31:41;94602.50;;;20.97;74.02
11339;BME280;5724;42.684;23.252;2023-07-24T00:34:06;94600.72;;;20.83;74.85
11339;BME280;5724;42.684;23.252;2023-07-24T00:36:31;94576.03;;;20.62;74.88
11339;BME280;5724;42.684;23.252;2023-07-24T00:38:57;94602.34;;;20.81;74.98
11339;BME280;5724;42.684;23.252;2023-07-24T00:41:22;94593.28;;;20.77;75.64
11339;BME280;5724;42.684;23.252;2023-07-24T00:43:48;94605.97;;;20.78;75.40
11339;BME280;5724;42.684;23.252;2023-07-24T00:46:13;94590.44;;;20.80;75.53
11339;BME280;5724;42.684;23.252;2023-07-24T00:48:39;94595.41;;;20.96;74.58
11339;BME280;5724;42.684;23.252;2023-07-24T00:51:05;94599.84;;;20.90;74.83
11339;BME280;5724;42.684;23.252;2023-07-24T00:53:31;94599.22;;;20.79;75.63
11339;BME280;5724;42.684;23.252;2023-07-24T00:55:57;94592.53;;;20.73;75.91
11339;BME280;5724;42.684;23.252;2023-07-24T00:58:22;94587.34;;;20.75;75.93
11339;BME280;5724;42.684;23.252;2023-07-24T01:00:48;94587.09;;;20.66;76.32
11339;BME280;5724;42.684;23.252;2023-07-24T01:03:15;94584.41;;;20.58;76.91
11339;BME280;5724;42.684;23.252;2023-07-24T01:05:40;94585.72;;;20.50;77.09
11339;BME280;5724;42.684;23.252;2023-07-24T01:08:07;94585.84;;;20.70;76.40
11339;BME280;5724;42.684;23.252;2023-07-24T01:10:32;94591.72;;;20.76;75.69
11339;BME280;5724;42.684;23.252;2023-07-24T01:12:59;94585.47;;;20.68;76.34
11339;BME280;5724;42.684;23.252;2023-07-24T01:15:41;94583.31;;;20.79;75.58
11339;BME280;5724;42.684;23.252;2023-07-24T01:18:11;94571.53;;;20.72;76.14
11339;BME280;5724;42.684;23.252;2023-07-24T01:20:48;94572.38;;;20.69;76.28
11339;BME280;5724;42.684;23.252;2023-07-24T01:23:55;94573.59;;;20.68;76.34
11339;BME280;5724;42.684;23.252;2023-07-24T01:26:23;94568.97;;;20.57;76.58
11339;BME280;5724;42.684;23.252;2023-07-24T01:28:49;94572.56;;;20.54;77.27
11339;BME280;5724;42.684;23.252;2023-07-24T01:31:15;94568.28;;;20.50;76.97
11339;BME280;5724;42.684;23.252;2023-07-24T01:33:42;94574.72;;;20.40;77.04
11339;BME280;5724;42.684;23.252;2023-07-24T01:36:08;94581.78;;;20.48;76.68
11339;BME280;5724;42.684;23.252;2023-07-24T01:38:35;94581.72;;;20.51;76.82
11339;BME280;5724;42.684;23.252;2023-07-24T01:41:02;94569.19;;;20.36;76.69
11339;BME280;5724;42.684;23.252;2023-07-24T01:43:28;94584.38;;;20.28;78.23
11339;BME280;5724;42.684;23.252;2023-07-24T01:45:54;94593.72;;;20.41;77.41
11339;BME280;5724;42.684;23.252;2023-07-24T01:48:20;94592.09;;;20.47;76.67
11339;BME280;5724;42.684;23.252;2023-07-24T01:50:46;94588.25;;;20.34;77.29
11339;BME280;5724;42.684;23.252;2023-07-24T01:53:11;94588.31;;;20.30;78.05
11339;BME280;5724;42.684;23.252;2023-07-24T01:55:36;94593.91;;;20.27;78.00
11339;BME280;5724;42.684;23.252;2023-07-24T01:58:02;94592.06;;;20.13;79.08
11339;BME280;5724;42.684;23.252;2023-07-24T02:00:28;94588.63;;;20.02;79.17
11339;BME280;5724;42.684;23.252;2023-07-24T02:02:54;94584.59;;;20.10;79.02
11339;BME280;5724;42.684;23.252;2023-07-24T02:05:19;94583.47;;;20.04;79.76
11339;BME280;5724;42.684;23.252;2023-07-24T02:07:44;94582.69;;;20.04;79.41
11339;BME280;5724;42.684;23.252;2023-07-24T02:10:10;94586.22;;;20.08;78.40
11339;BME280;5724;42.684;23.252;2023-07-24T02:12:35;94594.06;;;20.13;77.66
11339;BME280;5724;42.684;23.252;2023-07-24T02:15:01;94591.03;;;20.00;78.48
11339;BME280;5724;42.684;23.252;2023-07-24T02:17:27;94579.91;;;20.04;77.28
11339;BME280;5724;42.684;23.252;2023-07-24T02:19:52;94572.06;;;19.95;77.96
11339;BME280;5724;42.684;23.252;2023-07-24T02:22:18;94584.28;;;20.01;77.68
11339;BME280;5724;42.684;23.252;2023-07-24T02:24:44;94577.13;;;20.04;77.01
11339;BME280;5724;42.684;23.252;2023-07-24T02:27:12;94567.59;;;20.05;76.31
11339;BME280;5724;42.684;23.252;2023-07-24T02:29:38;94576.41;;;19.99;76.43
11339;BME280;5724;42.684;23.252;2023-07-24T02:32:04;94581.53;;;20.01;76.43
11339;BME280;5724;42.684;23.252;2023-07-24T02:34:29;94576.88;;;19.91;76.76
11339;BME280;5724;42.684;23.252;2023-07-24T02:36:55;94576.41;;;19.96;76.35
11339;BME280;5724;42.684;23.252;2023-07-24T02:39:21;94582.00;;;19.92;76.51
11339;BME280;5724;42.684;23.252;2023-07-24T02:41:49;94574.06;;;19.94;76.42
11339;BME280;5724;42.684;23.252;2023-07-24T02:44:15;94578.44;;;19.92;76.77
11339;BME280;5724;42.684;23.252;2023-07-24T02:46:40;94572.56;;;19.86;77.09
11339;BME280;5724;42.684;23.252;2023-07-24T02:49:07;94573.84;;;19.78;77.29
11339;BME280;5724;42.684;23.252;2023-07-24T02:51:32;94571.47;;;19.80;77.35
11339;BME280;5724;42.684;23.252;2023-07-24T02:53:58;94577.03;;;19.77;78.06
11339;BME280;5724;42.684;23.252;2023-07-24T02:56:23;94578.94;;;19.83;77.66
11339;BME280;5724;42.684;23.252;2023-07-24T02:58:48;94535.22;;;19.60;77.47
11339;BME280;5724;42.684;23.252;2023-07-24T03:01:14;94571.47;;;19.80;77.75
11339;BME280;5724;42.684;23.252;2023-07-24T03:03:41;94565.16;;;19.76;77.72
11339;BME280;5724;42.684;23.252;2023-07-24T03:06:06;94575.44;;;19.79;78.07
11339;BME280;5724;42.684;23.252;2023-07-24T03:08:32;94574.72;;;19.71;78.25
11339;BME280;5724;42.684;23.252;2023-07-24T03:10:57;94569.91;;;19.76;77.89
11339;BME280;5724;42.684;23.252;2023-07-24T03:13:23;94564.72;;;19.81;77.83
11339;BME280;5724;42.684;23.252;2023-07-24T03:15:56;94568.69;;;19.80;77.70
11339;BME280;5724;42.684;23.252;2023-07-24T03:18:22;94568.50;;;19.60;78.35
11339;BME280;5724;42.684;23.252;2023-07-24T03:20:47;94568.56;;;19.50;79.09
11339;BME280;5724;42.684;23.252;2023-07-24T03:23:13;94561.06;;;19.47;78.86
11339;BME280;5724;42.684;23.252;2023-07-24T03:25:39;94571.09;;;19.33;79.37
11339;BME280;5724;42.684;23.252;2023-07-24T03:28:04;94575.84;;;19.29;79.72
11339;BME280;5724;42.684;23.252;2023-07-24T03:30:30;94536.72;;;18.75;80.21
11339;BME280;5724;42.684;23.252;2023-07-24T03:32:55;94570.00;;;19.20;80.04
11339;BME280;5724;42.684;23.252;2023-07-24T03:35:21;94579.41;;;19.30;79.48
11339;BME280;5724;42.684;23.252;2023-07-24T03:37:46;94578.47;;;19.47;78.70
11339;BME280;5724;42.684;23.252;2023-07-24T03:40:12;94570.06;;;19.13;79.72
11339;BME280;5724;42.684;23.252;2023-07-24T03:42:37;94569.75;;;19.00;80.73
11339;BME280;5724;42.684;23.252;2023-07-24T03:45:03;94569.88;;;18.86;81.08
11339;BME280;5724;42.684;23.252;2023-07-24T03:47:29;94574.63;;;18.85;81.41
11339;BME280;5724;42.684;23.252;2023-07-24T03:49:54;94570.13;;;19.06;80.91
11339;BME280;5724;42.684;23.252;2023-07-24T03:52:20;94577.34;;;18.89;81.13
11339;BME280;5724;42.684;23.252;2023-07-24T03:54:46;94575.81;;;18.81;81.82
11339;BME280;5724;42.684;23.252;2023-07-24T03:57:11;94582.44;;;18.98;81.69
11339;BME280;5724;42.684;23.252;2023-07-24T03:59:37;94579.63;;;19.05;80.79
11339;BME280;5724;42.684;23.252;2023-07-24T04:02:02;94576.91;;;18.98;81.41
11339;BME280;5724;42.684;23.252;2023-07-24T04:04:28;94579.63;;;19.05;81.08
11339;BME280;5724;42.684;23.252;2023-07-24T04:06:53;94586.44;;;18.93;81.14
11339;BME280;5724;42.684;23.252;2023-07-24T04:09:19;94586.44;;;18.93;81.64
11339;BME280;5724;42.684;23.252;2023-07-24T04:11:44;94596.31;;;18.94;81.81
11339;BME280;5724;42.684;23.252;2023-07-24T04:14:10;94588.00;;;18.94;81.36
11339;BME280;5724;42.684;23.252;2023-07-24T04:16:36;94591.44;;;19.12;80.92
11339;BME280;5724;42.684;23.252;2023-07-24T04:19:01;94591.91;;;19.04;81.74
11339;BME280;5724;42.684;23.252;2023-07-24T04:21:27;94592.66;;;19.08;82.85
11339;BME280;5724;42.684;23.252;2023-07-24T04:23:52;94596.19;;;19.12;82.95
11339;BME280;5724;42.684;23.252;2023-07-24T04:26:18;94584.84;;;18.96;83.41
11339;BME280;5724;42.684;23.252;2023-07-24T04:28:43;94592.56;;;19.19;82.44
11339;BME280;5724;42.684;23.252;2023-07-24T04:31:09;94596.38;;;19.35;82.03
11339;BME280;5724;42.684;23.252;2023-07-24T04:33:35;94589.88;;;19.60;80.85
11339;BME280;5724;42.684;23.252;2023-07-24T04:36:00;94597.69;;;19.72;79.72
11339;BME280;5724;42.684;23.252;2023-07-24T04:38:26;94592.97;;;19.69;79.88
11339;BME280;5724;42.684;23.252;2023-07-24T04:40:51;94589.59;;;19.88;79.37
11339;BME280;5724;42.684;23.252;2023-07-24T04:43:17;94595.31;;;20.08;78.70
11339;BME280;5724;42.684;23.252;2023-07-24T04:45:42;94600.75;;;20.19;78.32
11339;BME280;5724;42.684;23.252;2023-07-24T04:48:08;94598.75;;;20.19;77.94
11339;BME280;5724;42.684;23.252;2023-07-24T04:50:33;94599.34;;;20.34;77.18
11339;BME280;5724;42.684;23.252;2023-07-24T04:52:59;94605.56;;;20.49;76.30
11339;BME280;5724;42.684;23.252;2023-07-24T04:55:24;94611.94;;;20.42;74.58
11339;BME280;5724;42.684;23.252;2023-07-24T04:57:50;94601.34;;;20.34;75.67
11339;BME280;5724;42.684;23.252;2023-07-24T05:00:15;94607.25;;;20.36;75.95
11339;BME280;5724;42.684;23.252;2023-07-24T05:02:41;94614.19;;;20.54;75.71
11339;BME280;5724;42.684;23.252;2023-07-24T05:05:07;94605.34;;;20.63;75.58
11339;BME280;5724;42.684;23.252;2023-07-24T05:07:32;94609.84;;;20.84;74.57
11339;BME280;5724;42.684;23.252;2023-07-24T05:09:58;94607.03;;;20.88;73.82
11339;BME280;5724;42.684;23.252;2023-07-24T05:12:24;94607.72;;;20.65;74.47
11339;BME280;5724;42.684;23.252;2023-07-24T05:14:49;94603.28;;;20.71;74.52
11339;BME280;5724;42.684;23.252;2023-07-24T05:17:15;94609.47;;;20.82;74.76
11339;BME280;5724;42.684;23.252;2023-07-24T05:19:40;94603.50;;;20.83;74.81
11339;BME280;5724;42.684;23.252;2023-07-24T05:22:06;94609.75;;;20.91;74.68
11339;BME280;5724;42.684;23.252;2023-07-24T05:24:31;94605.75;;;20.92;74.72
11339;BME280;5724;42.684;23.252;2023-07-24T05:26:58;94600.09;;;20.99;74.88
11339;BME280;5724;42.684;23.252;2023-07-24T05:29:23;94605.13;;;21.08;74.88
11339;BME280;5724;42.684;23.252;2023-07-24T05:31:49;94598.69;;;21.14;74.43
11339;BME280;5724;42.684;23.252;2023-07-24T05:34:14;94597.94;;;21.10;74.10
11339;BME280;5724;42.684;23.252;2023-07-24T05:36:40;94604.34;;;21.07;74.20
11339;BME280;5724;42.684;23.252;2023-07-24T05:39:06;94599.91;;;21.13;73.90
11339;BME280;5724;42.684;23.252;2023-07-24T05:41:32;94608.53;;;21.19;73.55
11339;BME280;5724;42.684;23.252;2023-07-24T05:43:57;94590.03;;;21.36;72.69
11339;BME280;5724;42.684;23.252;2023-07-24T05:46:22;94592.09;;;21.55;71.64
11339;BME280;5724;42.684;23.252;2023-07-24T05:48:48;94586.72;;;21.68;71.14
11339;BME280;5724;42.684;23.252;2023-07-24T05:51:14;94573.53;;;21.72;70.30
11339;BME280;5724;42.684;23.252;2023-07-24T05:53:39;94589.47;;;21.91;70.40
11339;BME280;5724;42.684;23.252;2023-07-24T05:56:04;94587.59;;;21.85;70.17
11339;BME280;5724;42.684;23.252;2023-07-24T05:58:30;94586.84;;;22.04;69.88
11339;BME280;5724;42.684;23.252;2023-07-24T06:00:55;94583.41;;;21.96;69.00
11339;BME280;5724;42.684;23.252;2023-07-24T06:03:22;94579.22;;;22.08;67.76
11339;BME280;5724;42.684;23.252;2023-07-24T06:05:52;94580.53;;;22.23;67.49
11339;BME280;5724;42.684;23.252;2023-07-24T06:08:18;94571.19;;;22.14;66.08
11339;BME280;5724;42.684;23.252;2023-07-24T06:10:46;94582.81;;;22.28;66.79
11339;BME280;5724;42.684;23.252;2023-07-24T06:13:11;94574.88;;;22.47;65.74
11339;BME280;5724;42.684;23.252;2023-07-24T06:15:37;94577.13;;;22.72;64.11
11339;BME280;5724;42.684;23.252;2023-07-24T06:18:02;94582.34;;;22.90;63.53
11339;BME280;5724;42.684;23.252;2023-07-24T06:20:28;94584.47;;;23.02;63.55
11339;BME280;5724;42.684;23.252;2023-07-24T06:22:53;94581.69;;;23.18;61.38
11339;BME280;5724;42.684;23.252;2023-07-24T06:25:19;94576.81;;;23.22;61.13
11339;BME280;5724;42.684;23.252;2023-07-24T06:27:44;94585.78;;;23.30;60.96
11339;BME280;5724;42.684;23.252;2023-07-24T06:30:09;94577.16;;;23.08;62.03
11339;BME280;5724;42.684;23.252;2023-07-24T06:32:35;94576.91;;;23.19;61.95
11339;BME280;5724;42.684;23.252;2023-07-24T06:35:00;94580.78;;;22.89;62.32
11339;BME280;5724;42.684;23.252;2023-07-24T06:37:26;94579.22;;;23.04;62.60
11339;BME280;5724;42.684;23.252;2023-07-24T06:39:51;94578.88;;;23.02;61.69
11339;BME280;5724;42.684;23.252;2023-07-24T06:42:17;94574.25;;;22.95;62.16
11339;BME280;5724;42.684;23.252;2023-07-24T06:44:42;94575.41;;;23.14;63.26
11339;BME280;5724;42.684;23.252;2023-07-24T06:47:07;94576.28;;;23.43;62.85
11339;BME280;5724;42.684;23.252;2023-07-24T06:49:35;94531.00;;;23.39;62.36
11339;BME280;5724;42.684;23.252;2023-07-24T06:52:01;94567.84;;;23.80;62.54
11339;BME280;5724;42.684;23.252;2023-07-24T06:54:27;94584.84;;;23.85;61.55
11339;BME280;5724;42.684;23.252;2023-07-24T06:56:52;94577.00;;;24.09;60.75
11339;BME280;5724;42.684;23.252;2023-07-24T06:59:18;94578.88;;;24.28;60.13
11339;BME280;5724;42.684;23.252;2023-07-24T07:01:43;94581.88;;;24.50;58.78
11339;BME280;5724;42.684;23.252;2023-07-24T07:04:09;94580.38;;;24.75;57.77
11339;BME280;5724;42.684;23.252;2023-07-24T07:06:34;94573.97;;;24.62;58.30
11339;BME280;5724;42.684;23.252;2023-07-24T07:09:00;94590.50;;;24.69;58.38
11339;BME280;5724;42.684;23.252;2023-07-24T07:11:25;94591.06;;;24.64;58.14
11339;BME280;5724;42.684;23.252;2023-07-24T07:13:50;94588.75;;;24.88;57.38
11339;BME280;5724;42.684;23.252;2023-07-24T07:16:16;94586.03;;;25.13;56.40
11339;BME280;5724;42.684;23.252;2023-07-24T07:18:44;94586.34;;;25.28;55.67
11339;BME280;5724;42.684;23.252;2023-07-24T07:21:10;94572.78;;;24.88;58.65
11339;BME280;5724;42.684;23.252;2023-07-24T07:23:35;94568.88;;;24.98;59.03
11339;BME280;5724;42.684;23.252;2023-07-24T07:26:01;94560.63;;;25.07;59.18
11339;BME280;5724;42.684;23.252;2023-07-24T07:28:27;94568.19;;;24.94;58.29
11339;BME280;5724;42.684;23.252;2023-07-24T07:30:53;94571.06;;;24.65;59.17
11339;BME280;5724;42.684;23.252;2023-07-24T07:33:19;94579.34;;;24.69;59.00
11339;BME280;5724;42.684;23.252;2023-07-24T07:35:47;94558.88;;;24.30;60.26
11339;BME280;5724;42.684;23.252;2023-07-24T07:38:13;94566.72;;;24.64;60.01
11339;BME280;5724;42.684;23.252;2023-07-24T07:40:38;94559.66;;;24.60;58.87
11339;BME280;5724;42.684;23.252;2023-07-24T07:43:07;94570.31;;;24.77;58.59
11339;BME280;5724;42.684;23.252;2023-07-24T07:45:32;94561.19;;;25.02;58.37
11339;BME280;5724;42.684;23.252;2023-07-24T07:47:58;94553.47;;;25.06;58.00
11339;BME280;5724;42.684;23.252;2023-07-24T07:50:24;94555.94;;;25.04;58.01
11339;BME280;5724;42.684;23.252;2023-07-24T07:52:50;94562.41;;;25.01;57.82
11339;BME280;5724;42.684;23.252;2023-07-24T07:55:17;94528.59;;;24.58;58.74
11339;BME280;5724;42.684;23.252;2023-07-24T07:57:44;94554.47;;;25.25;57.43
11339;BME280;5724;42.684;23.252;2023-07-24T08:00:10;94560.94;;;25.48;56.83
11339;BME280;5724;42.684;23.252;2023-07-24T08:02:35;94551.63;;;25.63;56.03
11339;BME280;5724;42.684;23.252;2023-07-24T08:05:08;94567.84;;;25.56;56.01
11339;BME280;5724;42.684;23.252;2023-07-24T08:07:34;94565.50;;;25.80;55.62
11339;BME280;5724;42.684;23.252;2023-07-24T08:09:59;94562.75;;;26.02;55.44
11339;BME280;5724;42.684;23.252;2023-07-24T08:12:25;94560.03;;;26.33;54.89
11339;BME280;5724;42.684;23.252;2023-07-24T08:14:50;94564.94;;;26.63;53.70
11339;BME280;5724;42.684;23.252;2023-07-24T08:17:16;94534.81;;;26.76;52.85
11339;BME280;5724;42.684;23.252;2023-07-24T08:19:41;94546.50;;;27.06;51.92
11339;BME280;5724;42.684;23.252;2023-07-24T08:22:07;94545.59;;;27.09;51.26
11339;BME280;5724;42.684;23.252;2023-07-24T08:24:36;94541.75;;;27.25;51.13
11339;BME280;5724;42.684;23.252;2023-07-24T08:27:02;94541.16;;;27.39;50.60
11339;BME280;5724;42.684;23.252;2023-07-24T08:29:27;94540.81;;;27.68;49.48
11339;BME280;5724;42.684;23.252;2023-07-24T08:31:53;94532.31;;;27.59;49.81
11339;BME280;5724;42.684;23.252;2023-07-24T08:34:18;94529.69;;;27.64;48.67
11339;BME280;5724;42.684;23.252;2023-07-24T08:36:44;94535.28;;;27.46;48.50
11339;BME280;5724;42.684;23.252;2023-07-24T08:39:09;94535.75;;;27.45;49.02
11339;BME280;5724;42.684;23.252;2023-07-24T08:41:36;94531.78;;;27.82;47.88
11339;BME280;5724;42.684;23.252;2023-07-24T08:44:12;94525.69;;;27.65;48.15
11339;BME280;5724;42.684;23.252;2023-07-24T08:46:38;94533.75;;;27.63;47.68
11339;BME280;5724;42.684;23.252;2023-07-24T08:49:06;94530.72;;;27.39;47.87
11339;BME280;5724;42.684;23.252;2023-07-24T08:51:32;94525.53;;;27.20;48.17
11339;BME280;5724;42.684;23.252;2023-07-24T08:53:59;94526.75;;;27.68;47.82
11339;BME280;5724;42.684;23.252;2023-07-24T08:56:26;94525.53;;;27.97;47.71
11339;BME280;5724;42.684;23.252;2023-07-24T08:58:51;94525.41;;;28.18;47.56
11339;BME280;5724;42.684;23.252;2023-07-24T09:01:17;94523.50;;;28.61;46.37
11339;BME280;5724;42.684;23.252;2023-07-24T09:03:42;94518.97;;;28.64;46.65
11339;BME280;5724;42.684;23.252;2023-07-24T09:06:08;94525.50;;;28.79;44.15
11339;BME280;5724;42.684;23.252;2023-07-24T09:08:35;94514.06;;;28.92;44.84
11339;BME280;5724;42.684;23.252;2023-07-24T09:11:02;94517.97;;;28.85;45.43
11339;BME280;5724;42.684;23.252;2023-07-24T09:13:28;94516.81;;;29.10;43.22
11339;BME280;5724;42.684;23.252;2023-07-24T09:15:54;94507.91;;;29.12;42.77
11339;BME280;5724;42.684;23.252;2023-07-24T09:18:20;94512.69;;;28.78;44.65
11339;BME280;5724;42.684;23.252;2023-07-24T09:20:46;94498.84;;;28.47;44.60
11339;BME280;5724;42.684;23.252;2023-07-24T09:23:13;94511.22;;;28.31;44.49
11339;BME280;5724;42.684;23.252;2023-07-24T09:25:40;94505.59;;;28.40;44.11
11339;BME280;5724;42.684;23.252;2023-07-24T09:30:36;94502.75;;;28.49;43.76
11339;BME280;5724;42.684;23.252;2023-07-24T09:33:01;94496.66;;;28.60;42.96
11339;BME280;5724;42.684;23.252;2023-07-24T09:35:27;94489.81;;;29.03;43.18
11339;BME280;5724;42.684;23.252;2023-07-24T09:38:04;94483.94;;;29.25;43.72
11339;BME280;5724;42.684;23.252;2023-07-24T09:40:51;94477.81;;;29.60;43.36
11339;BME280;5724;42.684;23.252;2023-07-24T09:45:46;94465.63;;;30.02;39.93
11339;BME280;5724;42.684;23.252;2023-07-24T09:48:13;94460.25;;;30.04;38.72
11339;BME280;5724;42.684;23.252;2023-07-24T09:50:41;94434.09;;;29.41;41.12
11339;BME280;5724;42.684;23.252;2023-07-24T09:53:38;94468.78;;;29.95;40.31
11339;BME280;5724;42.684;23.252;2023-07-24T09:56:08;94465.38;;;30.29;41.29
11339;BME280;5724;42.684;23.252;2023-07-24T09:58:38;94461.59;;;30.47;40.85
11339;BME280;5724;42.684;23.252;2023-07-24T10:01:09;94455.47;;;30.48;39.54
11339;BME280;5724;42.684;23.252;2023-07-24T10:03:37;94451.78;;;30.57;41.29
11339;BME280;5724;42.684;23.252;2023-07-24T10:06:04;94448.38;;;30.53;41.13
11339;BME280;5724;42.684;23.252;2023-07-24T10:08:30;94446.03;;;30.37;40.33
11339;BME280;5724;42.684;23.252;2023-07-24T10:10:58;94438.53;;;30.48;40.18
11339;BME280;5724;42.684;23.252;2023-07-24T10:13:26;94438.28;;;30.76;40.98
11339;BME280;5724;42.684;23.252;2023-07-24T10:15:52;94442.47;;;31.16;38.71
11339;BME280;5724;42.684;23.252;2023-07-24T10:18:27;94435.22;;;31.09;36.86
11339;BME280;5724;42.684;23.252;2023-07-24T10:21:07;94436.34;;;30.67;38.96
11339;BME280;5724;42.684;23.252;2023-07-24T10:23:40;94433.03;;;30.69;40.09
11339;BME280;5724;42.684;23.252;2023-07-24T10:26:07;94427.75;;;30.91;40.03
11339;BME280;5724;42.684;23.252;2023-07-24T10:28:34;94422.91;;;30.62;37.86
11339;BME280;5724;42.684;23.252;2023-07-24T10:31:04;94426.75;;;30.94;38.62
11339;BME280;5724;42.684;23.252;2023-07-24T10:33:35;94420.91;;;30.98;37.53
11339;BME280;5724;42.684;23.252;2023-07-24T10:36:08;94410.00;;;31.05;36.62
11339;BME280;5724;42.684;23.252;2023-07-24T10:38:41;94419.72;;;31.04;36.89
11339;BME280;5724;42.684;23.252;2023-07-24T10:41:08;94430.59;;;31.26;37.10
11339;BME280;5724;42.684;23.252;2023-07-24T10:43:48;94417.97;;;31.22;35.61
11339;BME280;5724;42.684;23.252;2023-07-24T10:46:15;94422.66;;;31.10;36.75
11339;BME280;5724;42.684;23.252;2023-07-24T10:48:46;94420.78;;;31.07;36.13
11339;BME280;5724;42.684;23.252;2023-07-24T10:51:12;94411.97;;;31.34;36.25
11339;BME280;5724;42.684;23.252;2023-07-24T10:53:45;94396.31;;;31.54;35.97
11339;BME280;5724;42.684;23.252;2023-07-24T10:56:11;94412.19;;;31.72;35.68
11339;BME280;5724;42.684;23.252;2023-07-24T10:58:37;94405.44;;;31.08;36.42
11339;BME280;5724;42.684;23.252;2023-07-24T11:01:07;94399.63;;;31.52;36.17
11339;BME280;5724;42.684;23.252;2023-07-24T11:03:35;94411.66;;;31.12;36.97
11339;BME280;5724;42.684;23.252;2023-07-24T11:06:02;94419.00;;;30.89;36.15
11339;BME280;5724;42.684;23.252;2023-07-24T11:08:27;94401.44;;;30.65;36.29
11339;BME280;5724;42.684;23.252;2023-07-24T11:10:55;94395.69;;;30.44;36.59
11339;BME280;5724;42.684;23.252;2023-07-24T11:13:23;94382.34;;;30.60;37.13
11339;BME280;5724;42.684;23.252;2023-07-24T11:15:51;94370.28;;;30.59;37.27
11339;BME280;5724;42.684;23.252;2023-07-24T11:18:18;94383.38;;;30.92;37.57
11339;BME280;5724;42.684;23.252;2023-07-24T11:20:49;94375.16;;;31.09;35.59
11339;BME280;5724;42.684;23.252;2023-07-24T11:23:15;94386.09;;;31.01;35.45
11339;BME280;5724;42.684;23.252;2023-07-24T11:25:41;94373.50;;;30.67;38.86
11339;BME280;5724;42.684;23.252;2023-07-24T11:28:07;94381.69;;;30.35;40.29
11339;BME280;5724;42.684;23.252;2023-07-24T11:30:34;94358.53;;;30.46;40.63
11339;BME280;5724;42.684;23.252;2023-07-24T11:33:02;94362.56;;;30.25;40.70
11339;BME280;5724;42.684;23.252;2023-07-24T11:35:28;94362.53;;;30.39;39.88
11339;BME280;5724;42.684;23.252;2023-07-24T11:37:53;94347.19;;;30.26;41.11
11339;BME280;5724;42.684;23.252;2023-07-24T11:40:19;94355.03;;;30.51;41.15
11339;BME280;5724;42.684;23.252;2023-07-24T11:42:47;94346.66;;;30.57;38.59
11339;BME280;5724;42.684;23.252;2023-07-24T11:45:13;94343.94;;;30.62;38.31
11339;BME280;5724;42.684;23.252;2023-07-24T11:47:42;94349.69;;;30.68;39.62
11339;BME280;5724;42.684;23.252;2023-07-24T11:50:08;94355.41;;;30.73;39.47
11339;BME280;5724;42.684;23.252;2023-07-24T11:52:38;94340.16;;;30.65;40.44
11339;BME280;5724;42.684;23.252;2023-07-24T11:55:04;94341.50;;;30.55;37.85
11339;BME280;5724;42.684;23.252;2023-07-24T11:57:30;94342.34;;;30.91;38.62
11339;BME280;5724;42.684;23.252;2023-07-24T11:59:55;94349.28;;;31.10;38.68
11339;BME280;5724;42.684;23.252;2023-07-24T12:02:26;94342.91;;;31.15;36.92
11339;BME280;5724;42.684;23.252;2023-07-24T12:04:56;94340.25;;;31.26;36.92
11339;BME280;5724;42.684;23.252;2023-07-24T12:07:33;94347.53;;;31.33;36.06
11339;BME280;5724;42.684;23.252;2023-07-24T12:10:00;94333.50;;;31.39;35.55
11339;BME280;5724;42.684;23.252;2023-07-24T12:12:58;94341.63;;;31.16;36.57
11339;BME280;5724;42.684;23.252;2023-07-24T12:15:21;94344.53;;;31.37;37.92
11339;BME280;5724;42.684;23.252;2023-07-24T12:17:47;94344.91;;;31.09;38.00
11339;BME280;5724;42.684;23.252;2023-07-24T12:20:12;94335.84;;;31.05;38.14
11339;BME280;5724;42.684;23.252;2023-07-24T12:22:38;94335.22;;;31.16;37.79
11339;BME280;5724;42.684;23.252;2023-07-24T12:25:06;94339.28;;;31.29;37.07
11339;BME280;5724;42.684;23.252;2023-07-24T12:27:32;94337.50;;;31.52;36.42
11339;BME280;5724;42.684;23.252;2023-07-24T12:29:58;94342.78;;;31.65;35.21
11339;BME280;5724;42.684;23.252;2023-07-24T12:32:24;94336.69;;;31.72;35.48
11339;BME280;5724;42.684;23.252;2023-07-24T12:34:51;94335.47;;;31.99;35.08
11339;BME280;5724;42.684;23.252;2023-07-24T12:37:17;94329.22;;;32.15;34.26
11339;BME280;5724;42.684;23.252;2023-07-24T12:39:44;94321.09;;;32.29;34.31
11339;BME280;5724;42.684;23.252;2023-07-24T12:42:10;94318.69;;;32.22;32.64
11339;BME280;5724;42.684;23.252;2023-07-24T12:44:36;94317.38;;;32.43;31.99
11339;BME280;5724;42.684;23.252;2023-07-24T12:47:02;94319.75;;;32.50;32.58
11339;BME280;5724;42.684;23.252;2023-07-24T12:49:27;94317.94;;;32.47;34.11
11339;BME280;5724;42.684;23.252;2023-07-24T12:51:52;94311.25;;;31.93;34.66
11339;BME280;5724;42.684;23.252;2023-07-24T12:54:18;94310.88;;;31.79;34.54
11339;BME280;5724;42.684;23.252;2023-07-24T12:56:45;94322.78;;;31.89;35.78
11339;BME280;5724;42.684;23.252;2023-07-24T12:59:11;94311.03;;;31.96;35.75
11339;BME280;5724;42.684;23.252;2023-07-24T13:01:36;94306.34;;;32.19;35.74